Time;durP1;ratioP1;P1;durP2;ratioP2;P2;SDS_P1;SDS_P2;PMS_P1;PMS_P2;Temp;Humidity;BMP_temperature;BMP_pressure;BME280_temperature;BME280_humidity;BME280_pressure;Samples;Min_cycle;Max_cycle;Signal;HPM_P1;HPM_P2
2023/07/18 00:00:37;;;;;;;13.52;4.90;;;14.90;99.90;;;;;;6190801;23;20079;-72
2023/07/18 00:03:03;;;;;;;12.65;4.07;;;14.90;99.90;;;;;;6217585;23;20024;-72
2023/07/18 00:05:30;;;;;;;13.75;4.25;;;15.00;99.90;;;;;;6189152;23;20017;-72
2023/07/18 00:07:55;;;;;;;12.07;4.95;;;14.90;99.90;;;;;;6217361;23;20021;-72
2023/07/18 00:10:22;;;;;;;12.65;4.40;;;14.90;99.90;;;;;;6190682;23;20025;-72
2023/07/18 00:12:48;;;;;;;10.88;4.70;;;14.90;99.90;;;;;;6190654;23;20017;-72
2023/07/18 00:15:14;;;;;;;10.88;4.20;;;14.90;99.90;;;;;;6190688;23;20098;-72
2023/07/18 00:17:41;;;;;;;9.85;3.35;;;14.90;99.90;;;;;;6190852;23;20016;-72
2023/07/18 00:20:09;;;;;;;11.80;3.85;;;14.90;99.90;;;;;;6217023;23;20032;-72
2023/07/18 00:22:35;;;;;;;13.23;4.38;;;14.80;99.90;;;;;;6190639;23;20019;-72
2023/07/18 00:25:01;;;;;;;11.40;3.95;;;14.90;99.90;;;;;;6190659;23;20016;-72
2023/07/18 00:27:28;;;;;;;13.75;4.53;;;14.90;99.90;;;;;;6190526;23;20132;-72
2023/07/18 00:29:55;;;;;;;9.52;3.70;;;14.80;99.90;;;;;;6190444;23;20354;-72
2023/07/18 00:32:22;;;;;;;11.43;4.15;;;14.80;99.90;;;;;;6190444;23;20071;-72
2023/07/18 00:34:49;;;;;;;12.63;4.38;;;14.80;99.90;;;;;;6190440;23;20021;-72
2023/07/18 00:37:17;;;;;;;13.90;4.20;;;14.80;99.90;;;;;;6217194;23;20070;-72
2023/07/18 00:39:42;;;;;;;10.90;4.10;;;14.80;99.90;;;;;;6190480;23;20043;-72
2023/07/18 00:42:08;;;;;;;12.43;4.50;;;14.80;99.90;;;;;;6217378;23;20017;-72
2023/07/18 00:44:34;;;;;;;14.27;4.53;;;14.80;99.90;;;;;;6190363;23;20340;-72
2023/07/18 00:47:00;;;;;;;12.10;4.32;;;14.80;99.90;;;;;;6190377;23;20036;-72
2023/07/18 00:49:26;;;;;;;13.02;4.28;;;14.80;99.90;;;;;;6190234;23;20388;-72
2023/07/18 00:51:52;;;;;;;13.50;4.03;;;14.70;99.90;;;;;;6190400;23;20440;-72
2023/07/18 00:54:20;;;;;;;10.68;4.18;;;14.70;99.90;;;;;;6190288;23;20440;-72
2023/07/18 00:56:46;;;;;;;13.43;4.28;;;14.70;99.90;;;;;;6190012;23;20020;-72
2023/07/18 00:59:16;;;;;;;11.02;3.92;;;14.70;99.90;;;;;;6216910;23;20453;-71
2023/07/18 01:01:41;;;;;;;10.30;3.95;;;14.60;99.90;;;;;;6217219;23;20016;-72
2023/07/18 01:04:08;;;;;;;11.88;4.28;;;14.70;99.90;;;;;;6217135;23;20016;-72
2023/07/18 01:06:35;;;;;;;14.48;4.35;;;14.70;99.90;;;;;;6190159;23;20017;-72
2023/07/18 01:09:01;;;;;;;12.73;4.13;;;14.60;99.90;;;;;;6190033;23;20052;-72
2023/07/18 01:11:26;;;;;;;12.48;4.65;;;14.70;99.90;;;;;;6190193;23;20020;-72
2023/07/18 01:13:52;;;;;;;14.02;4.60;;;14.60;99.90;;;;;;6190210;23;20016;-72
2023/07/18 01:16:18;;;;;;;10.70;4.35;;;14.60;99.90;;;;;;6216728;23;20016;-72
2023/07/18 01:18:44;;;;;;;10.07;4.30;;;14.60;99.90;;;;;;6217075;23;20052;-72
2023/07/18 01:21:17;;;;;;;12.82;4.20;;;14.60;99.90;;;;;;6190160;23;20017;-72
2023/07/18 01:23:45;;;;;;;14.23;4.70;;;14.60;99.90;;;;;;6216891;23;20012;-72
2023/07/18 01:26:11;;;;;;;14.32;5.07;;;14.50;99.90;;;;;;6189912;23;20059;-72
2023/07/18 01:28:38;;;;;;;11.90;5.18;;;14.50;99.90;;;;;;6189948;23;20432;-72
2023/07/18 01:31:04;;;;;;;12.10;4.93;;;14.60;99.90;;;;;;6189785;23;20020;-72
2023/07/18 01:33:30;;;;;;;11.68;4.45;;;14.50;99.90;;;;;;6189630;23;20020;-73
2023/07/18 01:35:56;;;;;;;12.32;4.70;;;14.50;99.90;;;;;;6189878;23;20028;-72
2023/07/18 01:38:22;;;;;;;15.02;4.55;;;14.50;99.90;;;;;;6189779;23;20016;-72
2023/07/18 01:40:47;;;;;;;11.98;4.90;;;14.50;99.90;;;;;;6216351;23;20044;-72
2023/07/18 01:43:13;;;;;;;12.18;4.80;;;14.50;99.90;;;;;;6189651;23;20020;-72
2023/07/18 01:45:39;;;;;;;12.45;5.05;;;14.50;99.90;;;;;;6189885;23;20383;-72
2023/07/18 01:48:05;;;;;;;17.65;5.97;;;14.50;99.90;;;;;;6216685;23;20394;-72
2023/07/18 01:50:31;;;;;;;14.38;4.90;;;14.50;99.90;;;;;;6189687;23;20017;-72
2023/07/18 01:52:56;;;;;;;15.00;5.07;;;14.50;99.90;;;;;;6216420;23;20056;-72
2023/07/18 01:55:22;;;;;;;15.73;5.40;;;14.50;99.90;;;;;;6216607;23;20067;-72
2023/07/18 01:57:49;;;;;;;12.27;4.68;;;14.50;99.90;;;;;;6189650;23;20052;-72
2023/07/18 02:00:18;;;;;;;14.32;5.13;;;14.50;99.90;;;;;;6189785;23;20016;-72
2023/07/18 02:02:48;;;;;;;11.60;5.00;;;14.50;99.90;;;;;;6189742;23;20024;-72
2023/07/18 02:05:17;;;;;;;12.85;4.53;;;14.50;99.90;;;;;;6189616;23;20013;-72
2023/07/18 02:07:43;;;;;;;16.55;5.63;;;14.50;99.90;;;;;;6215864;23;20051;-73
2023/07/18 02:10:08;;;;;;;12.68;4.35;;;14.50;99.90;;;;;;6189425;23;20079;-72
2023/07/18 02:12:34;;;;;;;12.48;5.38;;;14.50;99.90;;;;;;6216410;23;20020;-72
2023/07/18 02:15:00;;;;;;;12.90;4.88;;;14.50;99.90;;;;;;6216244;23;20383;-72
2023/07/18 02:17:25;;;;;;;12.48;5.07;;;14.50;99.90;;;;;;6189508;23;20023;-72
2023/07/18 02:19:51;;;;;;;12.45;4.32;;;14.50;99.90;;;;;;6189597;23;20488;-72
2023/07/18 02:22:18;;;;;;;13.13;4.40;;;14.50;99.90;;;;;;6189460;23;20095;-72
2023/07/18 02:24:44;;;;;;;17.40;4.90;;;14.50;99.90;;;;;;6189433;23;20052;-72
2023/07/18 02:27:10;;;;;;;14.75;4.55;;;14.50;99.90;;;;;;6216312;23;20028;-72
2023/07/18 02:29:36;;;;;;;12.18;4.30;;;14.50;99.90;;;;;;6189408;23;20071;-72
2023/07/18 02:32:01;;;;;;;13.05;4.38;;;14.50;99.90;;;;;;6189527;23;20397;-72
2023/07/18 02:34:28;;;;;;;11.65;4.40;;;14.50;99.90;;;;;;6215810;23;20023;-73
2023/07/18 02:36:54;;;;;;;11.80;4.15;;;14.50;99.90;;;;;;6216308;23;20091;-72
2023/07/18 02:39:19;;;;;;;12.82;4.65;;;14.50;99.90;;;;;;6216325;23;20039;-72
2023/07/18 02:41:45;;;;;;;14.82;4.63;;;14.50;99.90;;;;;;6216447;23;20387;-73
2023/07/18 02:44:11;;;;;;;14.73;5.28;;;14.50;99.90;;;;;;6189419;23;20087;-72
2023/07/18 02:46:37;;;;;;;15.27;4.63;;;14.60;99.90;;;;;;6189396;23;20051;-72
2023/07/18 02:49:03;;;;;;;13.38;5.55;;;14.50;99.90;;;;;;6189236;23;20432;-72
2023/07/18 02:51:29;;;;;;;14.77;5.32;;;14.50;99.90;;;;;;6189416;23;20027;-72
2023/07/18 02:53:55;;;;;;;16.10;4.75;;;14.50;99.90;;;;;;6189292;23;20092;-72
2023/07/18 02:56:21;;;;;;;15.48;4.80;;;14.50;99.90;;;;;;6216247;23;20017;-72
2023/07/18 02:58:49;;;;;;;11.45;4.53;;;14.50;99.90;;;;;;6189342;23;20023;-72
2023/07/18 03:01:14;;;;;;;10.90;5.40;;;14.50;99.90;;;;;;6216211;23;20020;-73
2023/07/18 03:03:40;;;;;;;11.80;4.95;;;14.40;99.90;;;;;;6189328;23;20028;-72
2023/07/18 03:06:07;;;;;;;14.95;4.40;;;14.40;99.90;;;;;;6189381;23;20028;-72
2023/07/18 03:08:33;;;;;;;12.10;4.80;;;14.40;99.90;;;;;;6189225;23;20040;-72
2023/07/18 03:11:05;;;;;;;14.48;4.70;;;14.50;99.90;;;;;;6189260;23;20456;-72
2023/07/18 03:13:31;;;;;;;11.82;4.65;;;14.40;99.90;;;;;;6216175;23;20012;-72
2023/07/18 03:15:56;;;;;;;12.88;4.38;;;14.40;99.90;;;;;;6189204;23;20051;-72
2023/07/18 03:18:22;;;;;;;11.13;4.60;;;14.30;99.90;;;;;;6216010;23;20016;-73
2023/07/18 03:20:49;;;;;;;9.52;4.65;;;14.40;99.90;;;;;;6191026;23;20028;-72
2023/07/18 03:23:15;;;;;;;16.05;5.15;;;14.30;99.90;;;;;;6190907;23;20027;-72
2023/07/18 03:25:43;;;;;;;16.10;5.53;;;14.40;99.90;;;;;;6190542;23;20016;-72
2023/07/18 03:28:09;;;;;;;12.38;4.93;;;14.40;99.90;;;;;;6189411;23;20204;-73
2023/07/18 03:30:35;;;;;;;11.75;4.60;;;14.40;99.90;;;;;;6190027;23;20096;-73
2023/07/18 03:33:01;;;;;;;17.98;5.00;;;14.30;99.90;;;;;;6190873;23;20009;-72
2023/07/18 03:35:28;;;;;;;17.83;5.10;;;14.40;99.90;;;;;;6190716;23;20075;-72
2023/07/18 03:37:54;;;;;;;16.40;5.50;;;14.40;99.90;;;;;;6190914;23;20063;-72
2023/07/18 03:40:20;;;;;;;12.90;5.05;;;14.30;99.90;;;;;;6190874;23;20017;-73
2023/07/18 03:42:46;;;;;;;17.02;5.13;;;14.40;99.90;;;;;;6190944;23;20158;-73
2023/07/18 03:45:13;;;;;;;13.68;4.82;;;14.40;99.90;;;;;;6217793;23;20112;-72
2023/07/18 03:47:42;;;;;;;15.60;4.95;;;14.40;99.90;;;;;;6190869;23;20448;-73
2023/07/18 03:50:10;;;;;;;11.60;5.38;;;14.40;99.90;;;;;;6190645;23;20024;-72
2023/07/18 03:52:36;;;;;;;13.80;5.38;;;14.40;99.90;;;;;;6190720;23;20021;-73
2023/07/18 03:55:03;;;;;;;12.10;4.72;;;14.40;99.90;;;;;;6217504;23;20075;-73
2023/07/18 03:57:30;;;;;;;13.00;5.53;;;14.40;99.90;;;;;;6190861;23;20344;-73
2023/07/18 03:59:56;;;;;;;13.60;5.57;;;14.40;99.90;;;;;;6190757;23;20436;-72
2023/07/18 04:02:21;;;;;;;12.00;5.70;;;14.40;99.90;;;;;;6190575;23;20012;-72
2023/07/18 04:04:47;;;;;;;18.73;5.72;;;14.40;99.90;;;;;;6190484;23;20332;-73
2023/07/18 04:07:16;;;;;;;14.85;5.75;;;14.50;99.90;;;;;;6190738;23;20095;-73
2023/07/18 04:09:44;;;;;;;14.13;5.65;;;14.40;99.90;;;;;;6190503;23;20017;-73
2023/07/18 04:12:10;;;;;;;16.35;5.38;;;14.40;99.90;;;;;;6190607;23;20020;-73
2023/07/18 04:14:36;;;;;;;15.38;6.15;;;14.50;99.90;;;;;;6190555;23;20024;-73
2023/07/18 04:17:02;;;;;;;12.75;6.15;;;14.50;99.90;;;;;;6190524;23;20063;-73
2023/07/18 04:19:29;;;;;;;15.13;6.07;;;14.50;99.90;;;;;;6190488;23;20016;-73
2023/07/18 04:21:55;;;;;;;17.50;6.20;;;14.50;99.90;;;;;;6217376;23;20095;-73
2023/07/18 04:24:21;;;;;;;16.55;6.47;;;14.60;99.90;;;;;;6217021;23;20102;-73
2023/07/18 04:26:47;;;;;;;16.65;6.18;;;14.60;99.90;;;;;;6190546;23;20340;-73
2023/07/18 04:29:13;;;;;;;17.63;5.70;;;14.60;99.90;;;;;;6217299;23;20013;-73
2023/07/18 04:31:38;;;;;;;17.30;6.63;;;14.60;99.90;;;;;;6189786;23;20451;-73
2023/07/18 04:34:06;;;;;;;18.02;7.22;;;14.70;99.90;;;;;;6190199;23;20020;-73
2023/07/18 04:36:32;;;;;;;15.15;6.72;;;14.70;99.90;;;;;;6217316;23;20016;-73
2023/07/18 04:38:58;;;;;;;16.83;6.05;;;14.70;99.90;;;;;;6190361;23;20040;-73
2023/07/18 04:41:27;;;;;;;15.68;5.82;;;14.70;99.90;;;;;;6190316;23;20021;-73
2023/07/18 04:43:52;;;;;;;14.57;6.13;;;14.80;99.90;;;;;;6216824;23;20348;-73
2023/07/18 04:46:19;;;;;;;16.45;6.18;;;14.80;99.90;;;;;;6190315;23;20488;-72
2023/07/18 04:48:44;;;;;;;15.23;6.60;;;14.80;99.90;;;;;;6190314;23;20511;-72
2023/07/18 04:51:10;;;;;;;23.48;6.60;;;14.90;99.90;;;;;;6190324;23;20017;-73
2023/07/18 04:53:36;;;;;;;16.35;5.90;;;14.80;99.90;;;;;;6190315;23;20016;-72
2023/07/18 04:56:04;;;;;;;11.90;5.78;;;14.90;99.90;;;;;;6217135;23;20020;-73
2023/07/18 04:58:29;;;;;;;16.48;7.20;;;14.90;99.90;;;;;;6190302;23;20020;-73
2023/07/18 05:00:56;;;;;;;21.02;7.53;;;14.90;99.90;;;;;;6190083;23;20024;-73
2023/07/18 05:03:22;;;;;;;13.90;6.20;;;14.90;99.90;;;;;;6190279;23;20336;-72
2023/07/18 05:05:47;;;;;;;14.70;6.20;;;15.00;99.90;;;;;;6190411;23;20510;-73
2023/07/18 05:08:13;;;;;;;15.70;5.82;;;14.90;99.90;;;;;;6216495;23;20024;-73
2023/07/18 05:10:40;;;;;;;18.20;6.35;;;15.00;99.90;;;;;;6189998;23;20103;-72
2023/07/18 05:13:07;;;;;;;18.48;6.82;;;15.00;99.90;;;;;;6189708;23;20340;-73
2023/07/18 05:15:32;;;;;;;18.13;5.93;;;15.10;99.90;;;;;;6216515;23;20512;-73
2023/07/18 05:17:58;;;;;;;14.98;6.57;;;15.20;99.90;;;;;;6189939;23;20020;-73
2023/07/18 05:20:24;;;;;;;15.73;6.45;;;15.30;99.90;;;;;;6189925;23;20326;-73
2023/07/18 05:22:52;;;;;;;17.27;6.35;;;15.40;99.90;;;;;;6189732;23;20017;-72
2023/07/18 05:25:18;;;;;;;14.25;5.80;;;15.60;99.90;;;;;;6189949;23;20020;-73
2023/07/18 05:27:44;;;;;;;16.67;5.90;;;15.60;99.90;;;;;;6189882;23;20087;-73
2023/07/18 05:30:16;;;;;;;14.65;5.07;;;15.70;99.90;;;;;;6188797;23;20384;-72
2023/07/18 05:32:43;;;;;;;17.27;5.25;;;15.70;99.90;;;;;;6190557;23;20016;-72
2023/07/18 05:35:13;;;;;;;12.45;4.93;;;15.80;99.90;;;;;;6189553;23;20021;-73
2023/07/18 05:37:41;;;;;;;20.55;4.90;;;15.90;99.90;;;;;;6216768;23;20087;-73
2023/07/18 05:40:11;;;;;;;19.70;5.32;;;15.90;99.90;;;;;;6216196;23;20348;-72
2023/07/18 05:42:37;;;;;;;13.70;4.35;;;15.90;99.90;;;;;;6189682;23;20024;-72
2023/07/18 05:45:05;;;;;;;15.55;4.32;;;15.90;99.90;;;;;;6189749;23;20452;-72
2023/07/18 05:47:31;;;;;;;13.85;4.35;;;16.00;99.90;;;;;;6189809;23;20092;-72
2023/07/18 05:49:56;;;;;;;17.67;4.93;;;16.10;99.90;;;;;;6216519;23;20408;-73
2023/07/18 05:52:22;;;;;;;16.45;5.45;;;16.10;99.90;;;;;;6216180;23;20021;-72
2023/07/18 05:54:48;;;;;;;13.82;5.05;;;16.10;99.90;;;;;;6189488;23;20095;-73
2023/07/18 05:57:14;;;;;;;12.82;4.45;;;16.20;99.90;;;;;;6189686;23;20017;-73
2023/07/18 05:59:40;;;;;;;11.98;4.50;;;16.20;99.90;;;;;;6189697;23;20024;-72
2023/07/18 06:02:05;;;;;;;15.52;4.30;;;16.30;99.90;;;;;;6189511;23;20024;-72
2023/07/18 06:04:31;;;;;;;16.73;4.60;;;16.30;99.90;;;;;;6189553;23;20498;-72
2023/07/18 06:06:57;;;;;;;10.80;4.32;;;16.40;99.90;;;;;;6189712;23;20021;-72
2023/07/18 06:09:22;;;;;;;17.70;5.05;;;16.50;99.90;;;;;;6189504;23;20044;-72
2023/07/18 06:11:48;;;;;;;11.98;4.18;;;16.50;99.90;;;;;;6189599;23;20020;-72
2023/07/18 06:14:14;;;;;;;14.02;4.78;;;16.50;99.90;;;;;;6189516;23;20021;-71
2023/07/18 06:16:39;;;;;;;9.73;3.65;;;16.50;99.90;;;;;;6189540;23;20064;-73
2023/07/18 06:19:05;;;;;;;13.82;4.53;;;16.60;99.90;;;;;;6189433;23;20020;-75
2023/07/18 06:21:31;;;;;;;13.05;4.07;;;16.70;99.90;;;;;;6189529;23;20016;-72
2023/07/18 06:23:57;;;;;;;14.13;4.80;;;16.70;99.90;;;;;;6189383;23;20067;-71
2023/07/18 06:26:23;;;;;;;14.75;4.43;;;16.70;99.90;;;;;;6189169;23;20029;-72
2023/07/18 06:28:49;;;;;;;12.10;4.25;;;16.70;99.90;;;;;;6216269;23;20436;-72
2023/07/18 06:31:18;;;;;;;12.48;4.65;;;16.80;99.90;;;;;;6215749;23;20321;-72
2023/07/18 06:33:45;;;;;;;9.55;3.53;;;16.70;99.90;;;;;;6189111;23;20020;-72
2023/07/18 06:36:13;;;;;;;12.23;4.68;;;16.80;99.90;;;;;;6159737;23;20052;-72
2023/07/18 06:38:39;;;;;;;11.48;3.47;;;16.80;99.90;;;;;;6186162;23;20017;-72
2023/07/18 06:41:05;;;;;;;10.80;3.53;;;16.80;99.90;;;;;;6186275;23;20041;-72
2023/07/18 06:43:32;;;;;;;10.50;3.80;;;16.90;99.90;;;;;;6186105;23;20049;-71
2023/07/18 06:45:58;;;;;;;15.90;3.70;;;16.90;99.90;;;;;;6186227;23;20024;-72
2023/07/18 06:48:24;;;;;;;9.90;3.10;;;17.00;99.90;;;;;;6186231;23;20016;-71
2023/07/18 06:50:52;;;;;;;11.23;4.28;;;17.00;99.90;;;;;;6186074;23;20088;-72
2023/07/18 06:53:20;;;;;;;10.80;3.30;;;17.10;99.90;;;;;;6185802;23;20053;-72
2023/07/18 06:55:46;;;;;;;14.85;4.03;;;17.20;99.90;;;;;;6188165;23;20052;-72
2023/07/18 06:58:15;;;;;;;12.32;5.72;;;17.30;99.90;;;;;;6161403;23;20445;-71
2023/07/18 07:00:41;;;;;;;9.77;3.25;;;17.30;99.90;;;;;;6160405;23;20021;-70
2023/07/18 07:03:07;;;;;;;15.50;3.97;;;17.40;99.90;;;;;;6161136;23;20047;-70
2023/07/18 07:05:43;;;;;;;9.98;4.20;;;17.50;99.90;;;;;;6161002;23;20389;-70
2023/07/18 07:08:12;;;;;;;11.57;4.25;;;17.60;99.90;;;;;;6161160;23;20088;-70
2023/07/18 07:10:42;;;;;;;12.95;4.35;;;17.70;99.90;;;;;;6160965;23;20028;-71
2023/07/18 07:13:10;;;;;;;14.35;3.67;;;17.80;99.90;;;;;;6161109;23;20023;-71
2023/07/18 07:15:36;;;;;;;10.68;4.03;;;17.80;99.90;;;;;;6161035;23;20048;-71
2023/07/18 07:18:06;;;;;;;15.85;4.70;;;17.90;99.90;;;;;;6161143;23;20341;-70
2023/07/18 07:20:32;;;;;;;11.30;3.65;;;18.00;99.90;;;;;;6161040;23;20028;-70
2023/07/18 07:22:58;;;;;;;10.15;4.25;;;18.00;99.90;;;;;;6161047;23;20025;-72
2023/07/18 07:25:29;;;;;;;11.88;3.30;;;17.90;99.90;;;;;;6161124;23;20024;-72
2023/07/18 07:27:55;;;;;;;9.15;3.70;;;17.90;99.90;;;;;;6160970;23;20068;-70
2023/07/18 07:30:21;;;;;;;13.13;3.72;;;18.00;99.90;;;;;;6187552;23;20017;-71
2023/07/18 07:32:53;;;;;;;14.10;4.70;;;18.10;99.90;;;;;;6160774;23;20373;-71
2023/07/18 07:35:22;;;;;;;12.20;4.10;;;18.00;99.90;;;;;;6187287;23;20079;-70
2023/07/18 07:37:51;;;;;;;13.77;3.72;;;18.10;99.90;;;;;;6160958;23;20411;-70
2023/07/18 07:40:18;;;;;;;8.50;2.67;;;18.10;99.90;;;;;;6187254;23;20029;-71
2023/07/18 07:42:45;;;;;;;8.18;3.17;;;18.20;99.90;;;;;;6160788;23;20345;-72
2023/07/18 07:45:12;;;;;;;12.45;3.67;;;18.20;99.90;;;;;;6160712;23;20024;-72
2023/07/18 07:47:38;;;;;;;10.18;3.20;;;18.20;99.90;;;;;;6187533;23;20055;-72
2023/07/18 07:50:06;;;;;;;9.63;3.05;;;18.30;99.90;;;;;;6160736;23;20021;-72
2023/07/18 07:52:31;;;;;;;10.45;3.10;;;18.40;99.90;;;;;;6187440;23;20049;-72
2023/07/18 07:54:57;;;;;;;8.18;2.88;;;18.60;99.90;;;;;;6160828;23;20017;-72
2023/07/18 07:57:23;;;;;;;12.38;4.20;;;19.00;99.90;;;;;;6160553;23;20013;-71
2023/07/18 07:59:50;;;;;;;17.60;4.78;;;19.20;99.90;;;;;;6187338;23;20020;-72
2023/07/18 08:02:17;;;;;;;6.55;2.38;;;19.50;99.90;;;;;;6160720;23;20443;-72
2023/07/18 08:04:44;;;;;;;5.05;2.25;;;19.80;99.90;;;;;;6187276;23;20096;-72
2023/07/18 08:07:16;;;;;;;7.00;1.90;;;20.10;99.90;;;;;;6160171;23;20055;-72
2023/07/18 08:09:42;;;;;;;5.43;1.58;;;20.20;99.90;;;;;;6160574;23;20049;-72
2023/07/18 08:12:09;;;;;;;4.38;1.80;;;20.20;99.90;;;;;;6160595;23;20025;-72
2023/07/18 08:14:37;;;;;;;5.82;1.90;;;20.10;99.90;;;;;;6160337;23;20017;-72
2023/07/18 08:17:04;;;;;;;7.95;2.00;;;19.90;99.90;;;;;;6186956;23;20025;-72
2023/07/18 08:19:32;;;;;;;4.93;1.77;;;19.80;99.90;;;;;;6160571;23;20043;-72
2023/07/18 08:21:58;;;;;;;6.50;1.70;;;19.80;99.90;;;;;;6187062;23;20013;-72
2023/07/18 08:24:23;;;;;;;5.72;1.67;;;20.00;99.90;;;;;;6160525;23;20017;-72
2023/07/18 08:26:49;;;;;;;4.95;1.50;;;20.30;99.90;;;;;;6187168;23;20036;-72
2023/07/18 08:29:15;;;;;;;4.90;1.45;;;20.50;99.90;;;;;;6160415;23;20192;-71
2023/07/18 08:31:41;;;;;;;3.70;1.35;;;20.70;99.90;;;;;;6160486;23;20080;-72
2023/07/18 08:34:09;;;;;;;3.35;1.27;;;20.80;99.90;;;;;;6159952;23;20013;-72
2023/07/18 08:36:36;;;;;;;5.13;1.30;;;20.90;99.90;;;;;;6150639;23;20025;-74
2023/07/18 08:39:02;;;;;;;4.93;1.42;;;21.10;99.90;;;;;;6155489;23;20673;-74
2023/07/18 08:41:31;;;;;;;6.32;1.50;;;21.10;99.90;;;;;;6154040;23;20087;-75
2023/07/18 08:43:58;;;;;;;3.95;1.42;;;21.30;99.90;;;;;;6154732;23;20017;-75
2023/07/18 08:46:25;;;;;;;4.95;1.65;;;21.30;99.90;;;;;;6155035;23;20723;-73
2023/07/18 08:48:51;;;;;;;4.20;1.60;;;21.50;99.90;;;;;;6182506;23;20449;-74
2023/07/18 08:51:17;;;;;;;6.40;1.60;;;21.70;99.90;;;;;;6185076;23;20096;-73
2023/07/18 08:53:42;;;;;;;3.42;1.40;;;21.70;99.90;;;;;;6186138;23;20017;-73
2023/07/18 08:56:08;;;;;;;4.70;1.63;;;21.90;99.90;;;;;;6159237;23;20021;-73
2023/07/18 08:58:37;;;;;;;6.93;2.00;;;21.90;99.90;;;;;;6159813;23;20017;-73
2023/07/18 09:01:04;;;;;;;6.13;1.70;;;22.10;99.90;;;;;;6159774;23;20461;-74
2023/07/18 09:03:29;;;;;;;4.95;1.58;;;22.10;99.90;;;;;;6160009;23;20017;-74
2023/07/18 09:05:58;;;;;;;6.88;2.17;;;22.30;99.90;;;;;;6185950;23;20380;-74
2023/07/18 09:08:23;;;;;;;4.40;1.50;;;22.20;99.90;;;;;;6159673;23;20096;-75
2023/07/18 09:11:02;;;;;;;4.60;1.58;;;22.30;99.90;;;;;;6159038;23;20056;-74
2023/07/18 09:13:31;;;;;;;8.45;1.70;;;22.50;99.90;;;;;;6159831;23;20009;-74
2023/07/18 09:15:56;;;;;;;3.67;1.70;;;22.50;99.90;;;;;;6159532;23;20017;-74
2023/07/18 09:18:22;;;;;;;3.55;1.60;;;22.60;99.90;;;;;;6159536;23;20385;-74
2023/07/18 09:20:48;;;;;;;3.83;1.60;;;22.50;99.90;;;;;;6186187;23;20013;-74
2023/07/18 09:23:14;;;;;;;3.92;1.17;;;22.30;99.90;;;;;;6183840;23;20024;-76
2023/07/18 09:25:43;;;;;;;5.03;1.42;;;22.50;99.90;;;;;;6159365;23;20021;-74
2023/07/18 09:28:12;;;;;;;5.72;1.63;;;22.50;99.90;;;;;;6159363;23;20053;-74
2023/07/18 09:30:39;;;;;;;4.10;1.48;;;22.70;99.90;;;;;;6159333;23;20024;-75
2023/07/18 09:33:05;;;;;;;3.70;1.42;;;22.70;99.90;;;;;;6159570;23;20017;-75
2023/07/18 09:35:36;;;;;;;3.30;1.55;;;22.80;99.90;;;;;;6159090;23;20025;-75
2023/07/18 09:38:03;;;;;;;4.82;1.85;;;22.90;99.90;;;;;;6159698;23;20025;-76
2023/07/18 09:40:30;;;;;;;4.43;1.33;;;23.00;99.90;;;;;;6159168;23;20021;-75
2023/07/18 09:42:56;;;;;;;4.65;1.58;;;23.10;99.90;;;;;;6158530;23;20012;-71
2023/07/18 09:45:28;;;;;;;4.07;1.52;;;23.00;99.90;;;;;;6184143;23;20017;-74
2023/07/18 09:47:57;;;;;;;4.82;1.25;;;22.90;99.90;;;;;;6159178;23;20129;-74
2023/07/18 09:50:25;;;;;;;3.42;1.45;;;23.00;99.90;;;;;;6158589;23;20507;-76
2023/07/18 09:52:57;;;;;;;3.78;1.90;;;22.90;99.90;;;;;;6159097;23;20017;-75
2023/07/18 09:55:27;;;;;;;3.28;1.40;;;23.00;99.90;;;;;;6159356;23;20448;-75
2023/07/18 09:57:55;;;;;;;5.07;1.50;;;22.80;99.90;;;;;;6183474;23;20021;-75
2023/07/18 10:00:23;;;;;;;3.60;1.40;;;22.80;99.90;;;;;;6159166;23;20041;-75
2023/07/18 10:02:54;;;;;;;2.95;1.58;;;22.70;99.90;;;;;;6158907;23;20024;-74
2023/07/18 10:05:21;;;;;;;9.00;1.60;;;22.60;99.90;;;;;;6185790;23;20075;-75
2023/07/18 10:07:47;;;;;;;5.43;1.70;;;22.70;99.90;;;;;;6158969;23;20448;-73
2023/07/18 10:10:13;;;;;;;4.07;1.60;;;22.70;99.90;;;;;;6186170;23;20124;-72
2023/07/18 10:12:54;;;;;;;5.35;1.45;;;22.70;99.90;;;;;;6185959;23;20008;-72
2023/07/18 10:15:20;;;;;;;3.92;1.67;;;22.70;99.90;;;;;;6159341;23;20047;-72
2023/07/18 10:17:47;;;;;;;4.97;1.55;;;22.50;99.90;;;;;;6185791;23;20409;-73
2023/07/18 10:20:21;;;;;;;4.03;1.63;;;22.30;99.90;;;;;;6159427;23;20025;-73
2023/07/18 10:22:48;;;;;;;6.03;1.70;;;22.30;99.90;;;;;;6159269;23;20021;-73
2023/07/18 10:25:17;;;;;;;3.60;1.42;;;22.30;99.90;;;;;;6159395;23;20373;-73
2023/07/18 10:27:44;;;;;;;4.93;1.40;;;22.50;99.90;;;;;;6159161;23;20464;-73
2023/07/18 10:30:18;;;;;;;3.38;1.27;;;22.50;99.90;;;;;;6184832;23;20091;-73
2023/07/18 10:32:55;;;;;;;3.08;1.33;;;22.70;99.90;;;;;;6159376;23;20020;-74
2023/07/18 10:35:26;;;;;;;3.17;1.10;;;22.80;99.90;;;;;;6159108;23;20100;-71
2023/07/18 10:38:03;;;;;;;4.70;1.30;;;22.90;99.90;;;;;;6185613;23;20326;-74
2023/07/18 10:40:38;;;;;;;1.80;1.10;;;23.00;99.90;;;;;;6159298;23;20013;-72
2023/07/18 10:43:09;;;;;;;2.78;1.10;;;23.10;99.90;;;;;;6185977;23;20063;-72
2023/07/18 10:45:40;;;;;;;3.65;1.20;;;23.20;99.90;;;;;;6159058;23;20422;-76
2023/07/18 10:48:15;;;;;;;3.72;0.80;;;23.40;99.90;;;;;;6185691;23;20097;-74
2023/07/18 10:50:41;;;;;;;3.60;1.25;;;23.50;99.90;;;;;;6159393;23;20016;-73
2023/07/18 10:53:18;;;;;;;4.57;1.52;;;23.40;99.90;;;;;;6185772;23;20044;-73
2023/07/18 10:55:47;;;;;;;2.25;1.08;;;23.50;99.90;;;;;;6185813;23;20021;-71
2023/07/18 10:58:18;;;;;;;2.88;1.30;;;23.70;99.90;;;;;;6159235;23;20021;-71
2023/07/18 11:00:44;;;;;;;2.65;1.00;;;23.70;99.90;;;;;;6185857;23;20021;-72
2023/07/18 11:03:21;;;;;;;1.92;1.00;;;23.80;99.90;;;;;;6158774;23;20017;-72
2023/07/18 11:05:51;;;;;;;4.00;1.10;;;23.70;99.90;;;;;;6159442;23;20025;-71
2023/07/18 11:08:30;;;;;;;2.55;0.88;;;23.90;99.90;;;;;;6159240;23;20052;-71
2023/07/18 11:11:00;;;;;;;5.53;1.75;;;24.10;99.90;;;;;;6159033;23;20504;-71
2023/07/18 11:13:34;;;;;;;3.25;1.38;;;24.00;99.90;;;;;;6159186;23;20092;-71
2023/07/18 11:16:14;;;;;;;2.90;1.30;;;24.20;99.90;;;;;;6159184;23;20056;-72
2023/07/18 11:18:45;;;;;;;5.05;1.65;;;24.30;99.90;;;;;;6185794;23;20024;-75
2023/07/18 11:21:12;;;;;;;4.28;1.60;;;24.20;99.90;;;;;;6159216;23;20047;-74
2023/07/18 11:23:39;;;;;;;3.83;1.50;;;24.20;99.90;;;;;;6159161;23;20467;-73
2023/07/18 11:26:13;;;;;;;4.75;1.83;;;24.50;99.90;;;;;;6159343;23;20019;-73
2023/07/18 11:28:43;;;;;;;6.60;1.63;;;24.40;99.90;;;;;;6159162;23;20432;-71
2023/07/18 11:31:32;;;;;;;3.00;1.20;;;24.10;99.90;;;;;;6185360;23;20101;-72
2023/07/18 11:34:01;;;;;;;7.50;2.08;;;23.80;99.90;;;;;;6185460;23;20092;-73
2023/07/18 11:36:32;;;;;;;4.63;1.30;;;23.60;99.90;;;;;;6185519;23;20025;-73
2023/07/18 11:39:17;;;;;;;5.25;1.73;;;23.40;99.90;;;;;;6158834;23;20009;-73
2023/07/18 11:41:44;;;;;;;8.60;1.80;;;23.30;99.90;;;;;;6187485;23;20013;-72
2023/07/18 11:44:10;;;;;;;5.22;1.52;;;23.40;99.90;;;;;;6160711;23;20082;-73
2023/07/18 11:46:37;;;;;;;5.20;2.05;;;23.40;99.90;;;;;;6160779;23;20429;-72
2023/07/18 11:49:12;;;;;;;4.90;2.03;;;23.20;99.90;;;;;;6187362;23;20017;-72
2023/07/18 11:51:40;;;;;;;3.05;1.42;;;23.30;99.90;;;;;;6160830;23;20047;-72
2023/07/18 11:54:08;;;;;;;3.13;1.27;;;23.20;99.90;;;;;;6187232;23;20084;-73
2023/07/18 11:56:35;;;;;;;5.03;1.75;;;22.90;99.90;;;;;;6160619;23;20013;-72
2023/07/18 11:59:01;;;;;;;4.57;1.50;;;23.00;99.90;;;;;;6160678;23;20337;-71
2023/07/18 12:01:26;;;;;;;4.07;1.55;;;23.00;99.90;;;;;;6187216;23;20021;-71
2023/07/18 12:03:53;;;;;;;4.45;1.48;;;23.00;99.90;;;;;;6160494;23;20048;-72
2023/07/18 12:06:19;;;;;;;4.53;1.63;;;23.00;99.90;;;;;;6187303;23;20036;-72
2023/07/18 12:08:45;;;;;;;5.07;1.80;;;22.90;99.90;;;;;;6160664;23;20025;-75
2023/07/18 12:11:11;;;;;;;4.53;1.80;;;22.70;99.90;;;;;;6187201;23;20021;-73
2023/07/18 12:13:38;;;;;;;5.60;2.00;;;22.60;99.90;;;;;;6160480;23;20053;-73
2023/07/18 12:16:07;;;;;;;4.35;2.00;;;22.60;99.90;;;;;;6160725;23;20072;-72
2023/07/18 12:18:33;;;;;;;5.32;2.05;;;22.50;99.90;;;;;;6186775;23;20400;-73
2023/07/18 12:20:59;;;;;;;6.22;2.00;;;22.50;99.90;;;;;;6186801;23;20441;-72
2023/07/18 12:23:25;;;;;;;4.63;1.52;;;22.60;99.90;;;;;;6187057;23;20055;-72
2023/07/18 12:25:51;;;;;;;7.18;1.83;;;22.50;99.90;;;;;;6160567;23;20433;-71
2023/07/18 12:28:17;;;;;;;6.18;1.73;;;22.70;99.90;;;;;;6186998;23;20063;-71
2023/07/18 12:30:46;;;;;;;4.85;1.70;;;22.50;99.90;;;;;;6186827;23;20017;-73
2023/07/18 12:33:12;;;;;;;2.90;1.63;;;22.40;99.90;;;;;;6187011;23;20013;-77
2023/07/18 12:35:44;;;;;;;4.45;1.60;;;22.30;99.90;;;;;;6184738;23;20045;-78
2023/07/18 12:38:10;;;;;;;;;;;22.30;99.90;;;;;;6159940;23;20353;-77
2023/07/18 12:40:37;;;;;;;4.10;1.65;;;22.40;99.90;;;;;;6183815;23;20059;-76